Weather at Al Maktoum International Airport

Public forecast

Using degrees Celsius for public forecast. Weather courtesy of forecast.io.

Current aviation weather report (METAR) for Al Maktoum International Airport

2024/05/26 16:00 (retrieved 17 minutes ago)

OMDW 261600Z 32005KT CAVOK 33/26 Q1002 NOSIG

Aviation forecast (TAF) for Al Maktoum International Airport

2024/05/26 12:00 (retrieved 4 hours ago)

TAF OMDW 261100Z 2612/2718 31011KT CAVOK BECMG 2616/2618 05005KT PROB30 2701/2704 4000 HZ BECMG 2701/2703 15010KT BECMG 2707/2709 30012KT BECMG 2716/2718 VRB02KT